createdAt,value
2018-09-28T00:00:32.267Z,5.93
2018-09-28T00:03:00.381Z,5.00
2018-09-28T00:05:28.532Z,4.60
2018-09-28T00:07:56.715Z,4.80
2018-09-28T00:10:24.918Z,4.60
2018-09-28T00:12:53.141Z,4.80
2018-09-28T00:15:21.309Z,5.37
2018-09-28T00:17:49.491Z,4.40
2018-09-28T00:20:17.571Z,4.20
2018-09-28T00:22:45.657Z,4.03
2018-09-28T00:25:13.803Z,4.03
2018-09-28T00:27:41.916Z,4.20
2018-09-28T00:30:10.071Z,4.00
2018-09-28T00:32:38.267Z,3.40
2018-09-28T00:35:06.345Z,3.50
2018-09-28T00:37:34.756Z,3.60
2018-09-28T00:40:02.914Z,3.57
2018-09-28T00:42:30.993Z,4.33
2018-09-28T00:44:59.098Z,4.40
2018-09-28T00:47:27.208Z,3.90
2018-09-28T00:49:55.464Z,4.20
2018-09-28T00:52:23.524Z,4.10
2018-09-28T00:54:51.606Z,4.30
2018-09-28T00:57:19.759Z,3.87
2018-09-28T00:59:47.869Z,4.40
2018-09-28T01:02:15.994Z,4.17
2018-09-28T01:04:44.103Z,4.00
2018-09-28T01:07:12.220Z,3.80
2018-09-28T01:09:40.292Z,4.03
2018-09-28T01:12:08.365Z,3.70
2018-09-28T01:14:36.398Z,4.07
2018-09-28T01:17:04.483Z,4.30
2018-09-28T01:19:32.590Z,3.80
2018-09-28T01:22:00.671Z,4.33
2018-09-28T01:24:28.831Z,3.77
2018-09-28T01:26:56.920Z,3.97
2018-09-28T01:29:25.016Z,4.30
2018-09-28T01:31:53.107Z,4.20
2018-09-28T01:34:21.923Z,4.93
2018-09-28T01:36:50.019Z,4.60
2018-09-28T01:39:18.063Z,4.23
2018-09-28T01:41:46.130Z,4.60
2018-09-28T01:44:14.177Z,4.73
2018-09-28T01:46:42.233Z,4.73
2018-09-28T01:49:10.254Z,4.50
2018-09-28T01:51:38.325Z,4.90
2018-09-28T01:54:06.433Z,5.00
2018-09-28T01:56:34.491Z,4.87
2018-09-28T01:59:02.591Z,4.80
2018-09-28T02:01:30.680Z,4.70
2018-09-28T02:03:58.951Z,5.23
2018-09-28T02:06:27.111Z,5.83
2018-09-28T02:08:55.227Z,5.57
2018-09-28T02:11:23.291Z,5.73
2018-09-28T02:13:51.325Z,5.93
2018-09-28T02:16:19.410Z,6.47
2018-09-28T02:18:47.437Z,5.83
2018-09-28T02:21:15.543Z,5.83
2018-09-28T02:23:43.630Z,6.20
2018-09-28T02:26:11.723Z,6.00
2018-09-28T02:28:39.980Z,6.60
2018-09-28T02:31:08.058Z,6.50
2018-09-28T02:33:36.110Z,6.97
2018-09-28T02:36:04.150Z,6.80
2018-09-28T02:38:32.342Z,6.60
2018-09-28T02:41:00.387Z,6.87
2018-09-28T02:45:57.695Z,7.57
2018-09-28T02:48:25.788Z,7.23
2018-09-28T02:50:53.841Z,8.27
2018-09-28T02:53:22.008Z,7.47
2018-09-28T02:55:50.118Z,8.40
2018-09-28T02:58:18.153Z,7.57
2018-09-28T03:00:47.259Z,8.57
2018-09-28T03:03:15.702Z,8.47
2018-09-28T03:05:43.768Z,9.30
2018-09-28T03:08:12.334Z,9.53
2018-09-28T03:10:40.373Z,8.70
2018-09-28T03:13:08.405Z,9.83
2018-09-28T03:15:36.873Z,9.97
2018-09-28T03:18:04.995Z,10.23
2018-09-28T03:20:33.131Z,9.90
2018-09-28T03:23:01.213Z,10.20
2018-09-28T03:25:29.254Z,11.03
2018-09-28T03:27:57.568Z,10.80
2018-09-28T03:30:25.719Z,10.07
2018-09-28T03:32:53.810Z,9.50
2018-09-28T03:35:21.966Z,8.83
2018-09-28T03:37:50.147Z,9.70
2018-09-28T03:40:18.211Z,9.57
2018-09-28T03:42:46.266Z,9.47
2018-09-28T03:45:14.367Z,9.63
2018-09-28T03:47:45.002Z,9.87
2018-09-28T03:50:13.087Z,9.40
2018-09-28T03:52:41.142Z,9.43
2018-09-28T03:55:09.523Z,9.60
2018-09-28T03:57:37.840Z,9.43
2018-09-28T04:00:06.357Z,9.17
2018-09-28T04:02:34.772Z,9.70
2018-09-28T04:05:03.104Z,9.80
2018-09-28T04:07:31.420Z,9.50
2018-09-28T04:09:59.731Z,9.17
2018-09-28T04:12:28.188Z,10.07
2018-09-28T04:14:56.496Z,9.87
2018-09-28T04:17:25.319Z,9.37
2018-09-28T04:19:53.596Z,9.10
2018-09-28T04:22:21.957Z,9.40
2018-09-28T04:24:50.296Z,9.63
2018-09-28T04:27:18.676Z,9.43
2018-09-28T04:29:46.994Z,10.40
2018-09-28T04:32:15.316Z,9.63
2018-09-28T04:34:43.627Z,9.93
2018-09-28T04:37:11.997Z,10.50
2018-09-28T04:42:14.999Z,10.87
2018-09-28T04:44:43.290Z,10.17
2018-09-28T04:47:11.612Z,9.93
2018-09-28T04:49:39.927Z,10.60
2018-09-28T04:52:08.284Z,10.37
2018-09-28T04:54:36.642Z,10.70
2018-09-28T04:57:04.946Z,10.53
2018-09-28T04:59:33.251Z,11.07
2018-09-28T05:02:01.593Z,9.90
2018-09-28T05:04:29.912Z,10.37
2018-09-28T05:06:58.293Z,11.07
2018-09-28T05:09:26.567Z,9.67
2018-09-28T05:11:54.891Z,10.70
2018-09-28T05:14:23.250Z,9.77
2018-09-28T05:16:51.600Z,10.07
2018-09-28T05:19:19.939Z,9.97
2018-09-28T05:21:48.241Z,9.70
2018-09-28T05:24:16.552Z,9.03
2018-09-28T05:26:44.930Z,9.40
2018-09-28T05:29:13.280Z,9.27
2018-09-28T05:31:41.701Z,9.37
2018-09-28T05:34:10.002Z,9.20
2018-09-28T05:36:38.460Z,8.80
2018-09-28T05:39:07.897Z,8.13
2018-09-28T05:41:36.252Z,8.57
2018-09-28T05:44:04.634Z,9.07
2018-09-28T05:46:33.008Z,8.80
2018-09-28T05:49:01.283Z,9.20
2018-09-28T05:51:29.654Z,8.50
2018-09-28T05:53:57.917Z,9.00
2018-09-28T05:56:26.246Z,8.93
2018-09-28T05:58:59.869Z,8.70
2018-09-28T06:01:33.567Z,8.20
2018-09-28T06:04:07.283Z,7.83
2018-09-28T06:06:35.668Z,9.10
2018-09-28T06:09:05.313Z,8.37
2018-09-28T06:11:33.661Z,7.73
2018-09-28T06:14:02.384Z,8.07
2018-09-28T06:16:30.682Z,8.17
2018-09-28T06:18:59.078Z,7.83
2018-09-28T06:21:27.341Z,7.33
2018-09-28T06:23:55.739Z,6.97
2018-09-28T06:26:24.081Z,6.80
2018-09-28T06:28:52.381Z,6.57
2018-09-28T06:31:21.659Z,6.30
2018-09-28T06:33:49.955Z,6.43
2018-09-28T06:36:18.462Z,6.67
2018-09-28T06:38:46.760Z,6.20
2018-09-28T06:41:15.092Z,5.60
2018-09-28T06:43:43.412Z,4.30
2018-09-28T06:46:11.823Z,4.50
2018-09-28T06:48:40.171Z,4.30
2018-09-28T06:51:08.556Z,3.57
2018-09-28T06:53:36.857Z,3.67
2018-09-28T06:56:05.286Z,2.83
2018-09-28T06:58:33.638Z,2.60
2018-09-28T07:01:01.921Z,2.37
2018-09-28T07:03:30.302Z,2.17
2018-09-28T07:05:58.714Z,2.20
2018-09-28T07:08:26.997Z,1.90
2018-09-28T07:10:55.324Z,2.23
2018-09-28T07:13:23.712Z,1.73
2018-09-28T07:15:52.344Z,1.93
2018-09-28T07:18:20.749Z,2.87
2018-09-28T07:20:49.031Z,1.97
2018-09-28T07:23:17.334Z,2.37
2018-09-28T07:25:46.447Z,3.90
2018-09-28T07:28:14.826Z,2.00
2018-09-28T07:30:43.222Z,1.97
2018-09-28T07:33:11.793Z,2.70
2018-09-28T07:35:40.140Z,2.10
2018-09-28T07:38:08.447Z,2.40
2018-09-28T07:40:36.761Z,2.37
2018-09-28T07:43:05.116Z,2.57
2018-09-28T07:45:33.490Z,2.17
2018-09-28T07:48:01.984Z,2.30
2018-09-28T07:50:30.298Z,2.17
2018-09-28T07:52:58.586Z,2.30
2018-09-28T07:55:26.917Z,2.23
2018-09-28T07:57:55.240Z,2.50
2018-09-28T08:00:23.612Z,2.60
2018-09-28T08:02:51.999Z,2.70
2018-09-28T08:05:20.570Z,3.10
2018-09-28T08:07:49.048Z,2.90
2018-09-28T08:10:17.394Z,2.27
2018-09-28T08:12:45.703Z,2.40
2018-09-28T08:15:14.012Z,2.40
2018-09-28T08:17:42.448Z,2.90
2018-09-28T08:20:10.935Z,3.27
2018-09-28T08:22:39.294Z,3.13
2018-09-28T08:25:07.631Z,3.13
2018-09-28T08:27:35.969Z,2.77
2018-09-28T08:30:04.374Z,2.70
2018-09-28T08:32:32.692Z,2.80
2018-09-28T08:35:01.005Z,2.57
2018-09-28T08:37:29.343Z,2.60
2018-09-28T08:39:58.363Z,2.60
2018-09-28T08:42:26.679Z,2.50
2018-09-28T08:44:55.055Z,2.70
2018-09-28T08:47:23.465Z,2.40
2018-09-28T08:49:51.770Z,2.40
2018-09-28T08:52:20.132Z,2.17
2018-09-28T08:54:48.462Z,2.53
2018-09-28T08:57:16.815Z,2.73
2018-09-28T08:59:45.227Z,2.80
2018-09-28T09:02:13.527Z,3.00
2018-09-28T09:04:41.912Z,2.80
2018-09-28T09:07:10.280Z,3.17
2018-09-28T09:09:38.752Z,2.73
2018-09-28T09:12:07.058Z,2.90
2018-09-28T09:14:35.462Z,3.00
2018-09-28T09:17:03.772Z,3.00
2018-09-28T09:19:32.105Z,2.30
2018-09-28T09:22:00.614Z,2.70
2018-09-28T09:24:29.072Z,2.37
2018-09-28T09:26:57.632Z,2.80
2018-09-28T09:29:25.960Z,2.73
2018-09-28T09:31:54.348Z,2.80
2018-09-28T09:34:22.645Z,3.90
2018-09-28T09:36:51.012Z,3.00
2018-09-28T09:39:19.535Z,3.10
2018-09-28T09:41:47.903Z,2.70
2018-09-28T09:44:16.243Z,2.80
2018-09-28T09:46:44.738Z,3.07
2018-09-28T09:49:13.207Z,2.43
2018-09-28T09:51:41.647Z,2.23
2018-09-28T09:54:10.184Z,2.40
2018-09-28T09:56:38.744Z,2.23
2018-09-28T09:59:07.346Z,2.67
2018-09-28T10:01:41.198Z,2.47
2018-09-28T10:04:10.491Z,2.20
2018-09-28T10:06:38.969Z,2.53
2018-09-28T10:09:09.732Z,2.00
2018-09-28T10:11:38.601Z,2.10
2018-09-28T10:14:06.979Z,2.40
2018-09-28T10:16:35.371Z,2.33
2018-09-28T10:19:03.809Z,2.60
2018-09-28T10:21:32.440Z,2.33
2018-09-28T10:24:01.138Z,2.57
2018-09-28T10:26:29.871Z,2.17
2018-09-28T10:28:58.373Z,2.83
2018-09-28T10:31:26.789Z,2.40
2018-09-28T10:33:55.286Z,2.80
2018-09-28T10:36:23.764Z,2.40
2018-09-28T10:38:52.711Z,2.70
2018-09-28T10:41:21.165Z,2.20
2018-09-28T10:43:49.618Z,2.40
2018-09-28T10:46:17.935Z,2.33
2018-09-28T10:48:46.290Z,2.07
2018-09-28T10:51:14.597Z,2.50
2018-09-28T10:53:42.967Z,2.17
2018-09-28T10:56:11.325Z,1.87
2018-09-28T10:58:39.703Z,2.20
2018-09-28T11:01:08.056Z,2.60
2018-09-28T11:03:36.456Z,2.17
2018-09-28T11:06:04.775Z,1.97
2018-09-28T11:08:33.147Z,2.30
2018-09-28T11:11:01.439Z,2.87
2018-09-28T11:13:29.836Z,2.43
2018-09-28T11:15:58.240Z,2.00
2018-09-28T11:18:26.631Z,1.63
2018-09-28T11:20:54.995Z,2.20
2018-09-28T11:23:23.328Z,1.70
2018-09-28T11:25:51.672Z,1.90
2018-09-28T11:28:19.991Z,2.00
2018-09-28T11:30:48.378Z,2.20
2018-09-28T11:33:16.778Z,1.87
2018-09-28T11:35:45.087Z,2.13
2018-09-28T11:38:13.383Z,2.40
2018-09-28T11:40:41.707Z,2.13
2018-09-28T11:43:10.242Z,2.00
2018-09-28T11:45:38.545Z,2.00
2018-09-28T11:48:06.873Z,1.90
2018-09-28T11:50:35.184Z,2.33
2018-09-28T11:53:04.135Z,2.00
2018-09-28T11:55:32.546Z,1.90
2018-09-28T11:58:01.056Z,2.07
2018-09-28T12:00:29.605Z,1.70
2018-09-28T12:02:57.932Z,1.77
2018-09-28T12:05:26.392Z,1.60
2018-09-28T12:07:54.727Z,2.07
2018-09-28T12:10:23.069Z,2.03
2018-09-28T12:12:51.394Z,1.83
2018-09-28T12:15:19.853Z,2.10
2018-09-28T12:17:48.178Z,2.23
2018-09-28T12:20:16.528Z,2.20
2018-09-28T12:22:44.855Z,2.80
2018-09-28T12:25:13.252Z,2.23
2018-09-28T12:27:41.644Z,2.33
2018-09-28T12:30:10.173Z,2.00
2018-09-28T12:32:38.712Z,1.80
2018-09-28T12:35:07.048Z,2.17
2018-09-28T12:37:35.572Z,2.03
2018-09-28T12:40:03.974Z,2.10
2018-09-28T12:42:32.395Z,2.10
2018-09-28T12:45:00.885Z,1.97
2018-09-28T12:47:29.058Z,2.27
2018-09-28T12:49:57.440Z,2.40
2018-09-28T12:52:26.325Z,2.30
2018-09-28T12:54:54.644Z,2.47
2018-09-28T12:57:22.959Z,2.20
2018-09-28T12:59:51.555Z,2.20
2018-09-28T13:02:20.229Z,1.87
2018-09-28T13:04:48.571Z,1.80
2018-09-28T13:07:16.939Z,2.00
2018-09-28T13:09:45.204Z,2.00
2018-09-28T13:12:13.589Z,1.70
2018-09-28T13:14:41.892Z,2.20
2018-09-28T13:17:10.266Z,2.00
2018-09-28T13:19:38.780Z,1.67
2018-09-28T13:22:07.343Z,2.00
2018-09-28T13:24:35.481Z,1.57
2018-09-28T13:27:03.576Z,1.73
2018-09-28T13:29:31.748Z,1.97
2018-09-28T13:31:59.846Z,1.90
2018-09-28T13:34:28.202Z,2.03
2018-09-28T13:36:56.262Z,1.40
2018-09-28T13:39:24.300Z,1.90
2018-09-28T13:41:52.398Z,1.90
2018-09-28T13:44:20.469Z,2.17
2018-09-28T13:46:48.662Z,2.03
2018-09-28T13:49:16.771Z,1.90
2018-09-28T13:51:45.638Z,1.67
2018-09-28T13:54:13.764Z,1.83
2018-09-28T13:56:41.913Z,1.80
2018-09-28T13:59:09.989Z,2.13
2018-09-28T14:01:38.052Z,1.60
2018-09-28T14:04:06.532Z,1.70
2018-09-28T14:06:35.564Z,2.20
2018-09-28T14:09:04.811Z,2.20
2018-09-28T14:11:33.170Z,1.97
2018-09-28T14:14:01.532Z,1.97
2018-09-28T14:16:30.109Z,1.90
2018-09-28T14:18:58.566Z,2.00
2018-09-28T14:21:27.111Z,2.07
2018-09-28T14:23:55.673Z,1.77
2018-09-28T14:26:24.092Z,1.80
2018-09-28T14:28:53.024Z,2.00
2018-09-28T14:31:21.668Z,2.07
2018-09-28T14:33:50.202Z,1.93
2018-09-28T14:36:18.711Z,2.20
2018-09-28T14:38:47.104Z,2.10
2018-09-28T14:41:15.474Z,1.73
2018-09-28T14:43:43.812Z,1.63
2018-09-28T14:46:12.245Z,1.80
2018-09-28T14:48:40.557Z,2.10
2018-09-28T14:51:08.916Z,1.97
2018-09-28T14:53:37.195Z,2.20
2018-09-28T14:56:05.568Z,1.70
2018-09-28T14:58:33.910Z,1.60
2018-09-28T15:01:02.388Z,2.07
2018-09-28T15:03:30.605Z,2.20
2018-09-28T15:05:58.921Z,1.90
2018-09-28T15:08:27.368Z,1.60
2018-09-28T15:10:55.655Z,1.90
2018-09-28T15:13:24.202Z,1.97
2018-09-28T15:16:01.093Z,1.80
2018-09-28T15:18:29.440Z,1.70
2018-09-28T15:20:57.765Z,1.70
2018-09-28T15:23:26.178Z,1.90
2018-09-28T15:25:54.528Z,1.70
2018-09-28T15:28:22.890Z,1.70
2018-09-28T15:30:51.284Z,1.67
2018-09-28T15:33:19.597Z,2.03
2018-09-28T15:35:47.942Z,2.03
2018-09-28T15:38:16.239Z,1.60
2018-09-28T15:40:44.607Z,1.83
2018-09-28T15:43:12.937Z,1.90
2018-09-28T15:45:41.807Z,2.10
2018-09-28T15:48:10.139Z,1.80
2018-09-28T15:50:38.563Z,1.87
2018-09-28T15:53:06.717Z,2.10
2018-09-28T15:55:34.828Z,1.83
2018-09-28T15:58:02.943Z,2.03
2018-09-28T16:00:31.056Z,1.87
2018-09-28T16:02:59.203Z,1.60
2018-09-28T16:05:27.291Z,1.80
2018-09-28T16:07:55.427Z,2.00
2018-09-28T16:10:23.553Z,1.93
2018-09-28T16:12:51.774Z,1.80
2018-09-28T16:15:19.836Z,1.70
2018-09-28T16:17:47.915Z,1.93
2018-09-28T16:20:15.986Z,2.23
2018-09-28T16:22:44.051Z,1.93
2018-09-28T16:25:12.103Z,1.80
2018-09-28T16:27:40.186Z,2.13
2018-09-28T16:30:08.229Z,2.10
2018-09-28T16:32:36.523Z,2.00
2018-09-28T16:35:04.575Z,1.90
2018-09-28T16:37:33.057Z,1.97
2018-09-28T16:40:01.107Z,1.60
2018-09-28T16:42:29.241Z,1.80
2018-09-28T16:44:57.287Z,2.20
2018-09-28T16:47:25.595Z,2.13
2018-09-28T16:49:53.974Z,2.13
2018-09-28T16:52:22.290Z,2.40
2018-09-28T16:54:50.570Z,1.30
2018-09-28T16:57:19.131Z,2.20
2018-09-28T16:59:47.449Z,2.13
2018-09-28T17:02:15.811Z,2.00
2018-09-28T17:04:44.161Z,2.17
2018-09-28T17:07:12.213Z,1.57
2018-09-28T17:09:40.310Z,2.10
2018-09-28T17:12:08.362Z,2.03
2018-09-28T17:14:38.612Z,2.00
2018-09-28T17:17:06.738Z,2.00
2018-09-28T17:19:34.811Z,2.10
2018-09-28T17:22:02.833Z,2.13
2018-09-28T17:24:30.919Z,2.10
2018-09-28T17:27:05.930Z,2.73
2018-09-28T17:29:34.011Z,2.00
2018-09-28T17:32:02.061Z,2.10
2018-09-28T17:34:30.065Z,1.80
2018-09-28T17:36:58.131Z,1.80
2018-09-28T17:39:26.281Z,2.07
2018-09-28T17:41:54.343Z,2.40
2018-09-28T17:44:22.733Z,2.23
2018-09-28T17:46:50.806Z,2.03
2018-09-28T17:49:18.862Z,2.33
2018-09-28T17:51:46.897Z,2.23
2018-09-28T17:54:14.970Z,3.03
2018-09-28T17:56:43.045Z,2.73
2018-09-28T17:59:11.493Z,2.20
2018-09-28T18:01:39.556Z,2.77
2018-09-28T18:04:08.464Z,2.40
2018-09-28T18:06:36.534Z,2.10
2018-09-28T18:09:06.522Z,2.20
2018-09-28T18:11:34.671Z,2.13
2018-09-28T18:14:02.792Z,2.03
2018-09-28T18:16:30.891Z,2.43
2018-09-28T18:19:04.890Z,2.30
2018-09-28T18:21:33.066Z,2.47
2018-09-28T18:24:01.169Z,2.30
2018-09-28T18:26:29.277Z,2.37
2018-09-28T18:28:57.363Z,2.20
2018-09-28T18:31:25.618Z,2.13
2018-09-28T18:33:53.858Z,2.50
2018-09-28T18:36:21.905Z,2.40
2018-09-28T18:38:49.952Z,2.10
2018-09-28T18:41:18.039Z,1.90
2018-09-28T18:43:46.109Z,2.60
2018-09-28T18:46:14.186Z,2.30
2018-09-28T18:48:42.301Z,2.43
2018-09-28T18:51:10.365Z,2.63
2018-09-28T18:53:38.406Z,2.57
2018-09-28T18:56:06.545Z,1.90
2018-09-28T18:58:34.808Z,2.40
2018-09-28T19:01:02.852Z,2.60
2018-09-28T19:03:30.922Z,2.60
2018-09-28T19:05:59.095Z,1.93
2018-09-28T19:08:27.789Z,2.73
2018-09-28T19:10:55.903Z,2.40
2018-09-28T19:13:23.979Z,2.50
2018-09-28T19:15:52.136Z,2.57
2018-09-28T19:18:20.203Z,2.30
2018-09-28T19:20:48.384Z,2.10
2018-09-28T19:23:16.463Z,2.57
2018-09-28T19:25:44.591Z,2.20
2018-09-28T19:28:12.636Z,2.30
2018-09-28T19:30:40.709Z,2.53
2018-09-28T19:33:08.818Z,2.33
2018-09-28T19:35:36.896Z,2.70
2018-09-28T19:38:05.057Z,2.60
2018-09-28T19:40:33.406Z,3.07
2018-09-28T19:43:01.459Z,3.00
2018-09-28T19:45:29.553Z,2.90
2018-09-28T19:47:57.729Z,3.10
2018-09-28T19:50:25.797Z,2.97
2018-09-28T19:52:53.850Z,3.63
2018-09-28T19:55:22.003Z,3.60
2018-09-28T19:57:50.266Z,2.90
2018-09-28T20:00:18.297Z,3.63
2018-09-28T20:02:46.478Z,3.30
2018-09-28T20:05:14.532Z,3.47
2018-09-28T20:07:42.566Z,3.50
2018-09-28T20:10:10.692Z,3.23
2018-09-28T20:12:38.735Z,3.60
2018-09-28T20:15:09.356Z,3.47
2018-09-28T20:17:37.608Z,3.83
2018-09-28T20:20:05.683Z,3.80
2018-09-28T20:22:33.719Z,3.40
2018-09-28T20:25:01.840Z,3.00
2018-09-28T20:27:29.904Z,3.90
2018-09-28T20:29:57.999Z,3.20
2018-09-28T20:32:26.100Z,3.43
2018-09-28T20:34:54.178Z,3.37
2018-09-28T20:37:22.312Z,3.57
2018-09-28T20:39:50.367Z,3.53
2018-09-28T20:42:18.495Z,3.03
2018-09-28T20:44:46.594Z,2.73
2018-09-28T20:47:14.630Z,3.33
2018-09-28T20:49:42.938Z,3.07
2018-09-28T20:52:11.003Z,3.53
2018-09-28T20:54:39.087Z,3.40
2018-09-28T20:57:07.184Z,3.43
2018-09-28T20:59:35.298Z,3.13
2018-09-28T21:02:03.342Z,2.57
2018-09-28T21:04:31.399Z,3.00
2018-09-28T21:06:59.488Z,3.23
2018-09-28T21:09:27.514Z,3.73
2018-09-28T21:11:55.597Z,4.10
2018-09-28T21:14:23.650Z,3.10
2018-09-28T21:16:51.714Z,3.40
2018-09-28T21:19:19.994Z,3.20
2018-09-28T21:21:48.215Z,3.07
2018-09-28T21:24:16.292Z,6.87
2018-09-28T21:26:44.359Z,4.00
2018-09-28T21:29:12.397Z,3.60
2018-09-28T21:31:40.449Z,3.40
2018-09-28T21:34:08.531Z,3.47
2018-09-28T21:36:36.577Z,3.63
2018-09-28T21:39:06.074Z,3.43
2018-09-28T21:41:34.163Z,3.50
2018-09-28T21:44:02.222Z,3.57
2018-09-28T21:46:30.275Z,3.57
2018-09-28T21:48:58.310Z,3.40
2018-09-28T21:51:26.344Z,3.87
2018-09-28T21:53:54.403Z,4.43
2018-09-28T21:56:22.429Z,3.63
2018-09-28T21:58:50.509Z,3.40
2018-09-28T22:01:19.620Z,3.57
2018-09-28T22:03:48.516Z,3.63
2018-09-28T22:06:16.598Z,3.97
2018-09-28T22:08:44.973Z,3.40
2018-09-28T22:11:13.071Z,3.07
2018-09-28T22:13:41.197Z,3.10
2018-09-28T22:16:09.269Z,3.07
2018-09-28T22:18:37.561Z,3.07
2018-09-28T22:21:05.638Z,3.20
2018-09-28T22:23:33.794Z,3.10
2018-09-28T22:26:02.208Z,2.97
2018-09-28T22:31:04.883Z,3.37
2018-09-28T22:33:32.951Z,3.20
2018-09-28T22:36:01.011Z,2.73
2018-09-28T22:38:29.074Z,2.80
2018-09-28T22:40:57.170Z,2.70
2018-09-28T22:43:25.181Z,2.90
2018-09-28T22:45:53.195Z,2.90
2018-09-28T22:48:21.260Z,3.07
2018-09-28T22:50:49.322Z,2.80
2018-09-28T22:53:17.421Z,3.13
2018-09-28T22:55:45.522Z,3.10
2018-09-28T22:58:13.562Z,3.30
2018-09-28T23:00:41.598Z,3.47
2018-09-28T23:03:09.668Z,3.20
2018-09-28T23:05:37.929Z,2.80
2018-09-28T23:08:06.027Z,2.83
2018-09-28T23:10:34.117Z,3.10
2018-09-28T23:13:02.642Z,3.70
2018-09-28T23:15:30.763Z,3.23
2018-09-28T23:17:58.810Z,2.90
2018-09-28T23:20:27.033Z,3.83
2018-09-28T23:22:55.130Z,3.47
2018-09-28T23:25:23.211Z,3.63
2018-09-28T23:27:51.264Z,3.67
2018-09-28T23:30:19.330Z,3.17
2018-09-28T23:32:47.402Z,3.60
2018-09-28T23:35:15.441Z,3.27
2018-09-28T23:37:43.551Z,2.70
2018-09-28T23:40:11.666Z,2.80
2018-09-28T23:42:39.728Z,3.03
2018-09-28T23:45:07.794Z,2.57
2018-09-28T23:47:35.869Z,2.47
2018-09-28T23:50:03.893Z,2.40
2018-09-28T23:52:31.938Z,2.60
2018-09-28T23:55:00.594Z,2.30
2018-09-28T23:57:28.635Z,2.60
2018-09-28T23:59:56.698Z,2.43
